createdAt,value
2022-09-15T00:02:16.668Z,78.20479
2022-09-15T00:07:17.813Z,77.91304
2022-09-15T00:12:18.799Z,78.20479
2022-09-15T00:17:19.724Z,77.91304
2022-09-15T00:22:20.664Z,78.20479
2022-09-15T00:27:21.653Z,78.20479
2022-09-15T00:32:22.846Z,78.49782
2022-09-15T00:37:23.765Z,78.49782
2022-09-15T00:42:24.843Z,78.49782
2022-09-15T00:47:25.988Z,78.49782
2022-09-15T00:52:27.078Z,78.49782
2022-09-15T00:57:28.135Z,78.20479
2022-09-15T01:02:29.209Z,78.20479
2022-09-15T01:07:30.151Z,78.20479
2022-09-15T01:12:31.277Z,78.49782
2022-09-15T01:17:32.205Z,78.79212
2022-09-15T01:22:33.193Z,78.49782
2022-09-15T01:27:41.602Z,78.49782
2022-09-15T01:32:43.085Z,78.79212
2022-09-15T01:37:44.153Z,78.79212
2022-09-15T01:42:45.158Z,78.79212
2022-09-15T01:47:46.172Z,78.79212
2022-09-15T01:52:47.242Z,78.79212
2022-09-15T01:57:48.153Z,78.49782
2022-09-15T02:02:49.292Z,78.79212
2022-09-15T02:07:50.212Z,78.79212
2022-09-15T02:12:51.284Z,79.08772
2022-09-15T02:17:52.233Z,79.38462
2022-09-15T02:22:53.158Z,78.79212
2022-09-15T02:27:54.208Z,78.49782
2022-09-15T02:32:55.144Z,78.79212
2022-09-15T02:37:56.064Z,78.49782
2022-09-15T02:42:57.071Z,78.49782
2022-09-15T02:47:58.049Z,78.79212
2022-09-15T02:52:58.997Z,78.79212
2022-09-15T02:58:00.034Z,78.79212
2022-09-15T03:03:00.990Z,79.08772
2022-09-15T03:08:01.949Z,79.08772
2022-09-15T03:13:03.100Z,79.38462
2022-09-15T03:18:04.084Z,79.38462
2022-09-15T03:23:05.149Z,79.38462
2022-09-15T03:28:06.118Z,79.68282
2022-09-15T03:33:07.262Z,79.38462
2022-09-15T03:38:08.212Z,79.38462
2022-09-15T03:43:09.204Z,79.68282
2022-09-15T03:48:10.185Z,79.68282
2022-09-15T03:53:11.128Z,79.68282
2022-09-15T03:58:12.032Z,79.68282
2022-09-15T04:03:12.968Z,79.68282
2022-09-15T04:08:13.884Z,79.68282
2022-09-15T04:13:14.898Z,80.28319
2022-09-15T04:18:15.923Z,80.28319
2022-09-15T04:23:16.806Z,80.28319
2022-09-15T04:28:17.810Z,80.28319
2022-09-15T04:33:18.934Z,80.28319
2022-09-15T04:38:19.873Z,80.58537
2022-09-15T04:43:20.897Z,80.58537
2022-09-15T04:48:21.861Z,80.58537
2022-09-15T04:53:23.073Z,80.58537
2022-09-15T04:58:24.000Z,80.28319
2022-09-15T05:03:25.025Z,80.88889
2022-09-15T05:08:25.936Z,80.58537
2022-09-15T05:13:26.965Z,80.88889
2022-09-15T05:18:27.902Z,81.19376
2022-09-15T05:23:29.022Z,80.88889
2022-09-15T05:28:30.168Z,80.88889
2022-09-15T05:33:31.258Z,80.88889
2022-09-15T05:38:32.312Z,80.58537
2022-09-15T05:43:33.416Z,80.58537
2022-09-15T05:48:34.442Z,80.28319
2022-09-15T05:53:35.447Z,80.28319
2022-09-15T05:58:36.365Z,80.28319
2022-09-15T06:03:37.390Z,79.38462
2022-09-15T06:08:40.531Z,79.68282
2022-09-15T06:13:44.708Z,79.08772
2022-09-15T06:18:45.983Z,78.79212
2022-09-15T06:23:50.712Z,78.49782
2022-09-15T06:28:51.988Z,77.91304
2022-09-15T06:33:53.267Z,77.62256
2022-09-15T06:38:54.457Z,78.49782
2022-09-15T06:43:55.447Z,78.20479
2022-09-15T06:48:56.462Z,77.62256
2022-09-15T06:53:57.535Z,77.62256
2022-09-15T06:58:58.555Z,77.91304
2022-09-15T07:03:59.550Z,77.91304
2022-09-15T07:09:00.503Z,77.62256
2022-09-15T07:14:01.675Z,79.08772
2022-09-15T07:19:02.614Z,79.38462
2022-09-15T07:24:07.030Z,78.20479
2022-09-15T07:29:08.640Z,79.38462
2022-09-15T07:34:09.579Z,79.08772
2022-09-15T07:39:10.580Z,77.04536
2022-09-15T07:44:11.516Z,75.34328
2022-09-15T07:49:12.665Z,75.06383
2022-09-15T07:54:16.265Z,76.18884
2022-09-15T07:59:19.646Z,76.18884
2022-09-15T08:04:20.675Z,76.47312
2022-09-15T08:09:21.618Z,76.18884
2022-09-15T08:14:22.740Z,75.62393
2022-09-15T08:19:23.821Z,75.62393
2022-09-15T08:29:25.287Z,74.23256
2022-09-15T08:34:26.324Z,74.50847
2022-09-15T08:39:27.330Z,74.78556
2022-09-15T08:44:28.647Z,76.47312
2022-09-15T08:49:47.832Z,76.18884
2022-09-15T08:54:52.374Z,75.90578
2022-09-15T08:59:53.389Z,78.79212
2022-09-15T09:04:54.430Z,78.49782
2022-09-15T09:09:55.368Z,75.90578
2022-09-15T09:14:56.302Z,76.47312
2022-09-15T09:19:57.232Z,75.90578
2022-09-15T09:24:58.234Z,77.33333
2022-09-15T09:29:59.222Z,78.49782
2022-09-15T09:35:00.225Z,78.79212
2022-09-15T09:40:01.294Z,79.98234
2022-09-15T09:45:02.418Z,80.58537
2022-09-15T09:50:03.500Z,80.58537
2022-09-15T09:55:04.591Z,79.68282
2022-09-15T10:00:05.512Z,78.79212
2022-09-15T10:05:06.614Z,79.08772
2022-09-15T10:10:07.786Z,77.91304
2022-09-15T10:15:08.763Z,79.08772
2022-09-15T10:20:10.401Z,79.68282
2022-09-15T10:25:11.405Z,83.05192
2022-09-15T10:30:12.446Z,79.68282
2022-09-15T10:35:13.680Z,78.20479
2022-09-15T10:40:14.615Z,78.20479
2022-09-15T10:45:15.608Z,76.75862
2022-09-15T10:50:16.613Z,79.68282
2022-09-15T10:55:24.812Z,82.73874
2022-09-15T11:00:38.148Z,82.11659
2022-09-15T11:05:39.125Z,80.58537
2022-09-15T11:10:40.040Z,82.42697
2022-09-15T11:15:42.184Z,83.68254
2022-09-15T11:20:43.257Z,80.88889
2022-09-15T11:25:44.169Z,84.63927
2022-09-15T11:30:47.803Z,83.05192
2022-09-15T11:35:49.200Z,82.42697
2022-09-15T11:40:50.256Z,82.42697
2022-09-15T11:45:51.236Z,81.5
2022-09-15T11:50:52.158Z,81.19376
2022-09-15T11:55:53.165Z,81.80761
2022-09-15T12:00:54.062Z,84.31891
2022-09-15T12:05:54.986Z,87.58974
2022-09-15T12:10:55.937Z,87.58974
2022-09-15T12:15:57.487Z,87.25581
2022-09-15T12:20:58.564Z,85.6092
2022-09-15T12:25:59.463Z,84.63927
2022-09-15T12:31:00.502Z,88.60094
2022-09-15T12:36:01.614Z,85.93548
2022-09-15T12:41:02.533Z,83.05192
2022-09-15T12:46:03.711Z,82.73874
2022-09-15T12:51:04.598Z,82.42697
2022-09-15T12:56:05.489Z,81.80761
2022-09-15T13:01:18.088Z,80.88889
2022-09-15T13:06:19.818Z,82.11659
2022-09-15T13:11:20.762Z,84.9611
2022-09-15T13:16:21.728Z,84.0
2022-09-15T13:21:22.734Z,85.93548
2022-09-15T13:26:23.949Z,85.6092
2022-09-15T13:31:24.929Z,86.26328
2022-09-15T13:36:26.630Z,84.9611
2022-09-15T13:41:27.721Z,86.26328
2022-09-15T13:46:28.942Z,85.2844
2022-09-15T13:51:29.979Z,86.26328
2022-09-15T14:01:45.351Z,84.63927
2022-09-15T14:06:46.355Z,84.63927
2022-09-15T14:11:47.298Z,86.92343
2022-09-15T14:16:48.523Z,88.60094
2022-09-15T14:21:49.478Z,87.25581
2022-09-15T14:26:50.368Z,86.59259
2022-09-15T14:31:51.479Z,88.60094
2022-09-15T14:36:52.509Z,87.58974
2022-09-15T14:41:53.473Z,85.6092
2022-09-15T14:46:54.418Z,84.63927
2022-09-15T14:51:55.335Z,87.92523
2022-09-15T14:56:58.299Z,89.62648
2022-09-15T15:01:59.309Z,86.92343
2022-09-15T15:07:00.265Z,86.26328
2022-09-15T15:12:01.237Z,87.58974
2022-09-15T15:17:02.696Z,88.60094
2022-09-15T15:22:03.671Z,87.58974
2022-09-15T15:27:04.686Z,87.58974
2022-09-15T15:32:05.650Z,88.94118
2022-09-15T15:37:06.612Z,89.28302
2022-09-15T15:42:07.543Z,91.01671
2022-09-15T15:47:08.550Z,88.2623
2022-09-15T15:52:09.620Z,88.60094
2022-09-15T15:57:10.696Z,93.51456
2022-09-15T16:02:11.839Z,96.09877
2022-09-15T16:07:12.869Z,92.79227
2022-09-15T16:12:13.789Z,90.31829
2022-09-15T16:17:15.091Z,89.62648
2022-09-15T16:22:16.017Z,87.25581
2022-09-15T16:27:16.930Z,86.92343
2022-09-15T16:32:17.867Z,87.58974
2022-09-15T16:37:18.869Z,86.92343
2022-09-15T16:42:19.782Z,87.92523
2022-09-15T16:47:21.083Z,86.59259
2022-09-15T16:52:22.352Z,88.2623
2022-09-15T16:57:23.766Z,87.58974
2022-09-15T17:02:24.984Z,87.25581
2022-09-15T17:07:25.989Z,88.2623
2022-09-15T17:12:26.961Z,91.01671
2022-09-15T17:17:28.436Z,92.43373
2022-09-15T17:22:29.583Z,91.36842
2022-09-15T17:27:30.461Z,90.31829
2022-09-15T17:32:34.776Z,91.36842
2022-09-15T17:37:35.986Z,90.66667
2022-09-15T17:42:36.982Z,92.43373
2022-09-15T17:47:37.869Z,91.01671
2022-09-15T17:52:38.888Z,89.97156
2022-09-15T17:57:40.707Z,90.31829
2022-09-15T18:02:41.677Z,91.72182
2022-09-15T18:07:47.724Z,91.01671
2022-09-15T18:12:50.108Z,91.01671
2022-09-15T18:17:53.390Z,90.31829
2022-09-15T18:22:54.319Z,89.97156
2022-09-15T18:27:55.247Z,89.62648
2022-09-15T18:32:56.145Z,91.36842
2022-09-15T18:37:57.115Z,91.72182
2022-09-15T18:42:58.049Z,92.07692
2022-09-15T18:47:58.968Z,92.07692
2022-09-15T18:53:00.017Z,92.79227
2022-09-15T18:58:01.313Z,91.72182
2022-09-15T19:03:02.479Z,89.62648
2022-09-15T19:08:03.373Z,87.92523
2022-09-15T19:13:04.358Z,88.2623
2022-09-15T19:18:05.298Z,89.97156
2022-09-15T19:23:06.333Z,91.36842
2022-09-15T19:28:07.278Z,89.62648
2022-09-15T19:33:08.220Z,88.2623
2022-09-15T19:38:09.118Z,88.2623
2022-09-15T19:43:10.017Z,87.58974
2022-09-15T19:48:11.016Z,87.58974
2022-09-15T19:53:12.001Z,87.92523
2022-09-15T19:58:12.908Z,87.92523
2022-09-15T20:03:13.800Z,86.59259
2022-09-15T20:08:15.265Z,86.59259
2022-09-15T20:13:16.326Z,86.59259
2022-09-15T20:18:17.296Z,86.26328
2022-09-15T20:23:18.312Z,85.93548
2022-09-15T20:28:19.243Z,85.2844
2022-09-15T20:33:20.169Z,85.93548
2022-09-15T20:38:21.234Z,85.6092
2022-09-15T20:43:22.169Z,86.26328
2022-09-15T20:48:24.061Z,86.26328
2022-09-15T20:53:26.457Z,86.26328
2022-09-15T20:58:27.530Z,86.26328
2022-09-15T21:03:28.474Z,86.92343
2022-09-15T21:08:29.443Z,86.92343
2022-09-15T21:13:30.380Z,86.92343
2022-09-15T21:18:31.284Z,86.92343
2022-09-15T21:23:32.230Z,85.93548
2022-09-15T21:28:33.146Z,85.6092
2022-09-15T21:33:34.031Z,85.2844
2022-09-15T21:38:34.940Z,84.9611
2022-09-15T21:43:36.050Z,85.2844
2022-09-15T21:48:37.102Z,85.6092
2022-09-15T21:53:38.123Z,85.2844
2022-09-15T21:58:42.647Z,85.2844
2022-09-15T22:03:44.642Z,84.9611
2022-09-15T22:08:45.866Z,85.2844
2022-09-15T22:13:47.030Z,86.59259
2022-09-15T22:18:48.241Z,85.93548
2022-09-15T22:23:49.196Z,86.26328
2022-09-15T22:28:50.118Z,86.92343
2022-09-15T22:33:51.057Z,86.92343
2022-09-15T22:38:52.020Z,86.59259
2022-09-15T22:43:53.058Z,86.92343
2022-09-15T22:48:54.001Z,87.92523
2022-09-15T22:53:55.027Z,87.92523
2022-09-15T22:58:56.127Z,87.92523
2022-09-15T23:03:57.279Z,88.60094
2022-09-15T23:08:58.267Z,88.94118
2022-09-15T23:13:59.185Z,89.97156
2022-09-15T23:19:00.111Z,89.62648
2022-09-15T23:24:01.145Z,90.31829
2022-09-15T23:29:02.081Z,90.31829
2022-09-15T23:34:03.070Z,89.28302
2022-09-15T23:39:04.057Z,88.2623
2022-09-15T23:44:05.441Z,90.31829
2022-09-15T23:49:06.344Z,90.66667
2022-09-15T23:54:07.281Z,90.31829
2022-09-15T23:59:08.330Z,89.28302
